Time;durP1;ratioP1;P1;durP2;ratioP2;P2;SDS_P1;SDS_P2;PMS_P1;PMS_P2;Temp;Humidity;BMP_temperature;BMP_pressure;BME280_temperature;BME280_humidity;BME280_pressure;Samples;Min_cycle;Max_cycle;Signal;HPM_P1;HPM_P2
2021/03/16 00:00:36;;;;;;;6.47;1.52;;;6.70;99.90;;;;;;10443832;28;20096;-54
2021/03/16 00:05:57;;;;;;;5.95;1.42;;;6.70;99.90;;;;;;10443073;28;20083;-53
2021/03/16 00:11:18;;;;;;;1.70;0.30;;;6.70;99.90;;;;;;10441700;28;20052;-53
2021/03/16 00:16:39;;;;;;;2.20;0.45;;;6.60;99.90;;;;;;10443637;28;20072;-54
2021/03/16 00:22:00;;;;;;;4.82;0.90;;;6.50;99.90;;;;;;10451534;28;20040;-54
2021/03/16 00:27:21;;;;;;;1.50;0.70;;;6.50;99.90;;;;;;10449635;28;20056;-54
2021/03/16 00:32:42;;;;;;;5.32;1.10;;;6.50;99.90;;;;;;10438430;28;20029;-54
2021/03/16 00:38:03;;;;;;;2.38;0.35;;;6.60;99.90;;;;;;10411915;28;20033;-54
2021/03/16 00:43:24;;;;;;;2.78;0.40;;;6.60;99.90;;;;;;10449175;28;20069;-54
2021/03/16 00:48:45;;;;;;;0.57;0.30;;;6.60;99.90;;;;;;10448716;28;20479;-54
2021/03/16 00:54:06;;;;;;;3.53;0.50;;;6.60;99.90;;;;;;10438842;28;20037;-54
2021/03/16 00:59:27;;;;;;;1.85;0.10;;;6.60;99.90;;;;;;10421648;28;20053;-54
2021/03/16 01:04:48;;;;;;;3.95;0.52;;;6.60;99.90;;;;;;10447886;28;20448;-54
2021/03/16 01:10:14;;;;;;;10.25;0.90;;;6.70;99.90;;;;;;10449632;28;20536;-54
2021/03/16 01:15:35;;;;;;;2.65;0.30;;;6.70;99.90;;;;;;10429119;28;20040;-53
2021/03/16 01:20:56;;;;;;;3.50;0.20;;;6.70;99.90;;;;;;10437923;28;20029;-54
2021/03/16 01:26:17;;;;;;;0.45;0.13;;;6.70;99.90;;;;;;10425177;28;20038;-54
2021/03/16 01:31:39;;;;;;;5.07;0.20;;;6.60;99.90;;;;;;10407596;28;20037;-54
2021/03/16 01:37:00;;;;;;;4.47;1.17;;;6.60;99.90;;;;;;10416907;28;20112;-53
2021/03/16 01:42:21;;;;;;;0.93;0.20;;;6.50;99.90;;;;;;10449262;28;20035;-54
2021/03/16 01:47:51;;;;;;;8.52;0.50;;;6.40;99.90;;;;;;10445777;28;20043;-54
2021/03/16 01:53:12;;;;;;;3.63;0.82;;;6.40;99.90;;;;;;10445158;28;20029;-53
2021/03/16 01:58:33;;;;;;;1.13;0.47;;;6.40;99.90;;;;;;10441341;28;20087;-53
2021/03/16 02:03:54;;;;;;;6.25;0.40;;;6.40;99.90;;;;;;10433449;28;20068;-53
2021/03/16 02:09:33;;;;;;;1.73;0.43;;;6.30;99.90;;;;;;10447505;28;20029;-54
2021/03/16 02:15:00;;;;;;;2.43;0.30;;;6.30;99.90;;;;;;10446861;28;20041;-53
2021/03/16 02:20:35;;;;;;;2.40;0.30;;;6.30;99.90;;;;;;10443404;28;20044;-54
2021/03/16 02:26:05;;;;;;;1.83;0.28;;;6.30;99.90;;;;;;10444541;28;20029;-54
2021/03/16 02:31:27;;;;;;;4.47;0.52;;;6.20;99.90;;;;;;10445143;28;20037;-54
2021/03/16 02:36:49;;;;;;;1.25;0.30;;;6.30;99.90;;;;;;10444261;28;20116;-54
2021/03/16 02:42:12;;;;;;;1.10;0.40;;;6.20;99.90;;;;;;10443548;28;20037;-54
2021/03/16 02:47:35;;;;;;;7.03;0.73;;;6.10;99.90;;;;;;10443579;28;20041;-54
2021/03/16 02:52:56;;;;;;;2.28;0.45;;;6.10;99.90;;;;;;10445426;28;20118;-53
2021/03/16 02:58:19;;;;;;;3.95;0.52;;;6.10;99.90;;;;;;10444611;28;20058;-54
2021/03/16 03:03:41;;;;;;;8.38;0.68;;;6.10;99.90;;;;;;10404521;28;20038;-54
2021/03/16 03:09:03;;;;;;;0.73;0.22;;;6.10;99.90;;;;;;10443088;28;20119;-54
2021/03/16 03:14:24;;;;;;;0.40;0.20;;;6.00;99.90;;;;;;10443672;28;20232;-54
2021/03/16 03:19:45;;;;;;;0.70;0.13;;;6.10;99.90;;;;;;10440955;28;20516;-54
2021/03/16 03:25:21;;;;;;;5.32;2.05;;;5.90;99.90;;;;;;10443405;28;20119;-53
2021/03/16 03:30:43;;;;;;;6.20;1.83;;;5.80;99.90;;;;;;10423566;28;20075;-54
2021/03/16 03:36:05;;;;;;;2.33;0.73;;;5.90;99.90;;;;;;10411906;28;20041;-54
2021/03/16 03:41:27;;;;;;;0.82;0.30;;;5.80;99.90;;;;;;10442479;28;20591;-53
2021/03/16 03:46:50;;;;;;;1.00;0.43;;;5.80;99.90;;;;;;10442082;28;20045;-54
2021/03/16 03:52:13;;;;;;;2.47;0.98;;;5.90;99.90;;;;;;10442069;28;20598;-54
2021/03/16 03:57:34;;;;;;;2.58;0.30;;;5.90;99.90;;;;;;10420568;28;20141;-54
2021/03/16 04:02:56;;;;;;;1.38;0.43;;;5.90;99.90;;;;;;10419701;28;20047;-54
2021/03/16 04:08:18;;;;;;;2.15;0.40;;;5.90;99.90;;;;;;10439363;28;20110;-53
2021/03/16 04:13:39;;;;;;;4.38;0.38;;;5.90;99.90;;;;;;10441974;28;20040;-54
2021/03/16 04:19:01;;;;;;;2.30;0.88;;;6.00;99.90;;;;;;10440660;28;20567;-54
2021/03/16 04:24:23;;;;;;;5.45;0.38;;;6.00;99.90;;;;;;10441840;28;20048;-54
2021/03/16 04:29:44;;;;;;;2.85;0.30;;;6.00;99.90;;;;;;10443019;28;20099;-54
2021/03/16 04:35:05;;;;;;;4.00;0.43;;;6.00;99.90;;;;;;10422589;28;20408;-54
2021/03/16 04:40:26;;;;;;;7.97;0.57;;;6.00;99.90;;;;;;10441741;28;20025;-53
2021/03/16 04:45:47;;;;;;;2.08;1.08;;;6.00;99.90;;;;;;10441056;28;20037;-53
2021/03/16 04:51:08;;;;;;;1.95;0.50;;;6.00;99.90;;;;;;10441094;28;20029;-53
2021/03/16 04:56:29;;;;;;;1.20;0.32;;;6.10;99.90;;;;;;10442672;28;20056;-53
2021/03/16 05:01:50;;;;;;;1.50;0.60;;;6.10;99.90;;;;;;10404813;28;20454;-53
2021/03/16 05:07:11;;;;;;;1.55;0.50;;;6.10;99.90;;;;;;10445458;28;20523;-53
2021/03/16 05:12:32;;;;;;;1.02;0.40;;;6.00;99.90;;;;;;10448411;28;20045;-54
2021/03/16 05:17:53;;;;;;;3.47;0.43;;;6.00;99.90;;;;;;10448375;28;20033;-54
2021/03/16 05:23:13;;;;;;;4.32;0.65;;;6.00;99.90;;;;;;10448927;28;20483;-53
2021/03/16 05:28:34;;;;;;;1.08;0.45;;;6.00;99.90;;;;;;10446956;28;20029;-54
2021/03/16 05:33:55;;;;;;;3.85;0.38;;;6.00;99.90;;;;;;10447707;28;20396;-53
2021/03/16 05:39:16;;;;;;;4.85;0.80;;;6.00;99.90;;;;;;10445916;28;20040;-54
2021/03/16 05:44:38;;;;;;;5.40;1.35;;;6.00;99.90;;;;;;10447420;28;20036;-54
2021/03/16 05:50:01;;;;;;;4.45;0.65;;;6.10;99.90;;;;;;10406811;28;20516;-53
2021/03/16 05:55:23;;;;;;;1.65;0.50;;;6.10;99.90;;;;;;10445728;28;20093;-54
2021/03/16 06:00:44;;;;;;;4.68;0.55;;;6.20;99.90;;;;;;10447844;28;20057;-53
2021/03/16 06:06:07;;;;;;;11.50;0.40;;;6.10;99.90;;;;;;10446809;28;20067;-53
2021/03/16 06:11:28;;;;;;;3.67;0.45;;;6.10;99.90;;;;;;10443210;28;20130;-53
2021/03/16 06:16:49;;;;;;;2.85;1.48;;;6.20;99.90;;;;;;10445317;28;20036;-53
2021/03/16 06:22:16;;;;;;;7.88;1.30;;;6.20;99.90;;;;;;10432073;28;20044;-53
2021/03/16 06:27:37;;;;;;;6.13;0.50;;;6.20;99.90;;;;;;10444484;28;20040;-53
2021/03/16 06:32:58;;;;;;;2.17;0.50;;;6.20;99.90;;;;;;10421116;28;20052;-54
2021/03/16 06:38:19;;;;;;;5.07;0.68;;;6.20;99.90;;;;;;10441848;28;20043;-54
2021/03/16 06:43:42;;;;;;;3.80;0.70;;;6.20;99.90;;;;;;10444279;28;20041;-53
2021/03/16 06:49:17;;;;;;;4.82;0.38;;;6.40;99.90;;;;;;10444029;28;20117;-54
2021/03/16 06:54:38;;;;;;;6.03;1.65;;;6.40;99.90;;;;;;10445396;28;20469;-53
2021/03/16 07:00:08;;;;;;;1.35;0.28;;;6.40;99.90;;;;;;10444203;28;20132;-53
2021/03/16 07:05:29;;;;;;;1.52;0.70;;;6.50;99.90;;;;;;10408386;28;20041;-53
2021/03/16 07:10:50;;;;;;;3.13;0.95;;;6.50;99.90;;;;;;10406580;28;20045;-53
2021/03/16 07:16:12;;;;;;;3.38;0.90;;;6.60;99.90;;;;;;10402516;28;20038;-53
2021/03/16 07:21:38;;;;;;;1.60;0.32;;;6.60;99.90;;;;;;10440762;28;20036;-57
2021/03/16 07:26:59;;;;;;;2.85;0.85;;;6.70;99.90;;;;;;10444718;28;20108;-53
2021/03/16 07:32:21;;;;;;;3.78;0.70;;;6.70;99.90;;;;;;10417502;28;20033;-53
2021/03/16 07:37:42;;;;;;;2.80;0.38;;;6.80;99.90;;;;;;10424436;28;20120;-53
2021/03/16 07:43:10;;;;;;;12.40;0.30;;;6.80;99.90;;;;;;10444529;28;20036;-53
2021/03/16 07:48:31;;;;;;;6.88;0.50;;;6.80;99.90;;;;;;10425042;28;20508;-53
2021/03/16 07:54:00;;;;;;;1.85;0.35;;;6.80;99.90;;;;;;10441302;28;20127;-54
2021/03/16 07:59:32;;;;;;;3.92;0.22;;;6.90;99.90;;;;;;10443466;28;20460;-53
2021/03/16 08:04:53;;;;;;;6.35;1.08;;;6.90;99.90;;;;;;10440093;28;20045;-53
2021/03/16 08:10:25;;;;;;;9.02;1.13;;;7.00;99.90;;;;;;10441080;28;20083;-53
2021/03/16 08:15:48;;;;;;;5.40;0.38;;;7.00;99.90;;;;;;10443029;28;20036;-53
2021/03/16 08:21:11;;;;;;;0.82;0.30;;;7.20;99.90;;;;;;10439181;28;20025;-54
2021/03/16 08:26:32;;;;;;;6.88;0.70;;;7.20;99.90;;;;;;10443190;28;20335;-54
2021/03/16 08:31:54;;;;;;;5.20;0.40;;;7.30;99.90;;;;;;10441537;28;20037;-53
2021/03/16 08:37:27;;;;;;;4.38;1.08;;;7.30;99.90;;;;;;10441233;28;20044;-53
2021/03/16 08:42:48;;;;;;;0.95;0.32;;;7.20;99.90;;;;;;10449711;28;20451;-54
2021/03/16 08:48:10;;;;;;;1.38;0.55;;;7.20;99.90;;;;;;10447465;28;20037;-53
2021/03/16 08:53:31;;;;;;;8.20;1.17;;;7.40;99.90;;;;;;10448428;28;20493;-53
2021/03/16 08:58:53;;;;;;;1.63;0.47;;;7.30;99.90;;;;;;10448216;28;20079;-54
2021/03/16 09:04:15;;;;;;;5.10;0.93;;;7.40;99.90;;;;;;10446761;28;20043;-54
2021/03/16 09:09:36;;;;;;;5.50;0.28;;;7.40;99.90;;;;;;10451669;28;20384;-54
2021/03/16 09:15:07;;;;;;;2.97;0.30;;;7.30;99.90;;;;;;10450385;28;20381;-53
2021/03/16 09:20:31;;;;;;;0.52;0.30;;;7.40;99.90;;;;;;10445833;28;20374;-53
2021/03/16 09:25:53;;;;;;;1.55;0.30;;;7.30;99.90;;;;;;10447212;28;20404;-53
2021/03/16 09:31:14;;;;;;;0.65;0.20;;;7.40;99.90;;;;;;10448493;28;20495;-53
2021/03/16 09:36:35;;;;;;;0.57;0.22;;;7.50;99.90;;;;;;10447945;28;20134;-53
2021/03/16 09:41:57;;;;;;;1.38;0.73;;;7.60;99.90;;;;;;10447354;28;20120;-53
2021/03/16 09:47:26;;;;;;;0.57;0.20;;;7.50;99.90;;;;;;10429811;28;20340;-53
2021/03/16 09:53:07;;;;;;;6.80;0.88;;;7.50;99.90;;;;;;10406776;28;20451;-53
2021/03/16 09:58:29;;;;;;;0.28;0.10;;;7.60;99.90;;;;;;10447210;28;20068;-53
2021/03/16 10:04:01;;;;;;;0.98;0.25;;;7.60;99.90;;;;;;10446144;28;20504;-53
2021/03/16 10:09:25;;;;;;;2.83;0.82;;;7.70;99.90;;;;;;10442731;28;20049;-54
2021/03/16 10:14:53;;;;;;;2.70;0.60;;;7.90;99.90;;;;;;10446959;28;20087;-54
2021/03/16 10:20:20;;;;;;;1.02;0.20;;;8.20;99.90;;;;;;10445647;28;20127;-54
2021/03/16 10:25:42;;;;;;;1.27;0.30;;;8.40;99.90;;;;;;10446991;28;20035;-54
2021/03/16 10:31:16;;;;;;;0.95;0.55;;;8.40;99.90;;;;;;10446868;28;20037;-54
2021/03/16 10:36:37;;;;;;;1.98;0.40;;;8.60;99.90;;;;;;10445104;28;20939;-54
2021/03/16 10:41:58;;;;;;;2.83;0.63;;;8.60;99.90;;;;;;10445021;28;20424;-54
2021/03/16 10:47:18;;;;;;;2.35;0.10;;;8.60;99.90;;;;;;10442265;28;20112;-54
2021/03/16 10:52:39;;;;;;;2.00;0.45;;;8.70;99.90;;;;;;10445678;28;20037;-54
2021/03/16 10:58:00;;;;;;;1.73;0.50;;;8.90;99.90;;;;;;10442509;28;20049;-53
2021/03/16 11:03:21;;;;;;;1.73;0.20;;;9.00;99.90;;;;;;10430945;28;20067;-53
2021/03/16 11:08:42;;;;;;;1.02;0.40;;;8.90;99.90;;;;;;10443285;28;20033;-53
2021/03/16 11:14:03;;;;;;;1.17;0.32;;;8.80;99.90;;;;;;10441039;28;20605;-54
2021/03/16 11:19:25;;;;;;;0.63;0.10;;;8.50;99.90;;;;;;10440045;28;20424;-54
2021/03/16 11:24:48;;;;;;;1.00;0.13;;;8.10;99.90;;;;;;10443681;28;20404;-53
2021/03/16 11:30:09;;;;;;;1.02;0.47;;;7.90;99.90;;;;;;10442461;28;20379;-54
2021/03/16 11:35:30;;;;;;;1.45;0.20;;;7.80;99.90;;;;;;10440704;28;20073;-54
2021/03/16 11:40:52;;;;;;;0.55;0.13;;;7.90;99.90;;;;;;10442371;28;20048;-54
2021/03/16 11:46:13;;;;;;;4.35;1.42;;;7.90;99.90;;;;;;10442700;28;20045;-54
2021/03/16 11:51:34;;;;;;;2.05;0.10;;;7.90;99.90;;;;;;10442013;28;20073;-54
2021/03/16 11:56:55;;;;;;;3.58;0.20;;;7.90;99.90;;;;;;10442416;28;20103;-54
2021/03/16 12:02:16;;;;;;;0.85;0.30;;;7.90;99.90;;;;;;10442656;28;20045;-54
2021/03/16 12:07:38;;;;;;;0.10;0.03;;;7.80;99.90;;;;;;10443434;28;20037;-54
2021/03/16 12:12:59;;;;;;;0.32;0.10;;;7.70;99.90;;;;;;10435059;28;20041;-54
2021/03/16 12:18:20;;;;;;;0.40;0.10;;;7.60;99.90;;;;;;10446471;28;20337;-54
2021/03/16 12:23:42;;;;;;;0.85;0.57;;;7.60;99.90;;;;;;10450115;28;20112;-54
2021/03/16 12:29:03;;;;;;;0.55;0.15;;;7.50;99.90;;;;;;10449293;28;20496;-54
2021/03/16 12:34:24;;;;;;;3.83;0.20;;;7.60;99.90;;;;;;10449739;28;20032;-54
2021/03/16 12:39:45;;;;;;;2.33;0.10;;;7.60;99.90;;;;;;10449941;28;20033;-54
2021/03/16 12:45:07;;;;;;;3.20;0.30;;;7.60;99.90;;;;;;10449131;28;20076;-54
2021/03/16 12:50:28;;;;;;;2.58;0.20;;;7.80;99.90;;;;;;10448029;28;20122;-54
2021/03/16 12:55:49;;;;;;;1.98;0.22;;;7.90;99.90;;;;;;10449464;28;20939;-54
2021/03/16 13:01:10;;;;;;;0.25;0.13;;;8.00;99.90;;;;;;10450012;28;20053;-54
2021/03/16 13:06:31;;;;;;;0.17;0.10;;;8.10;99.90;;;;;;10447888;28;20043;-54
2021/03/16 13:11:52;;;;;;;4.70;0.15;;;8.30;99.90;;;;;;10447393;28;20060;-54
2021/03/16 13:17:13;;;;;;;0.80;0.30;;;8.30;99.90;;;;;;10449256;28;20033;-54
2021/03/16 13:22:35;;;;;;;0.40;0.10;;;8.40;99.90;;;;;;10446857;28;20037;-54
2021/03/16 13:28:01;;;;;;;0.13;0.10;;;8.20;99.90;;;;;;10448542;28;20112;-54
2021/03/16 13:33:22;;;;;;;0.43;0.10;;;8.20;99.90;;;;;;10447779;28;20047;-54
2021/03/16 13:38:43;;;;;;;0.40;0.20;;;8.10;99.90;;;;;;10446745;28;20037;-54
2021/03/16 13:44:05;;;;;;;0.30;0.05;;;8.00;99.90;;;;;;10447430;28;20373;-54
2021/03/16 13:49:26;;;;;;;2.28;0.22;;;7.90;99.90;;;;;;10447190;28;20120;-54
2021/03/16 13:54:47;;;;;;;0.20;0.00;;;8.00;99.90;;;;;;10448131;28;20543;-54
2021/03/16 14:00:08;;;;;;;0.38;0.10;;;8.10;99.90;;;;;;10447421;28;20146;-54
2021/03/16 14:05:29;;;;;;;0.95;0.10;;;8.10;99.90;;;;;;10443130;28;20501;-54
2021/03/16 14:10:51;;;;;;;0.52;0.20;;;8.00;99.90;;;;;;10446939;28;20124;-54
2021/03/16 14:16:12;;;;;;;1.08;0.28;;;7.90;99.90;;;;;;10447357;28;20435;-54
2021/03/16 14:21:33;;;;;;;0.30;0.10;;;7.90;99.90;;;;;;10444975;28;20033;-54
2021/03/16 14:26:54;;;;;;;0.10;0.00;;;7.80;99.90;;;;;;10446740;28;20036;-53
2021/03/16 14:32:15;;;;;;;0.38;0.10;;;7.90;99.90;;;;;;10444130;28;20051;-54
2021/03/16 14:37:36;;;;;;;1.15;0.15;;;7.80;99.90;;;;;;10434498;28;20047;-54
2021/03/16 14:42:57;;;;;;;0.20;0.10;;;7.90;99.90;;;;;;10418149;28;20034;-54
2021/03/16 14:48:20;;;;;;;0.28;0.10;;;7.80;99.90;;;;;;10402080;28;20033;-54
2021/03/16 14:53:41;;;;;;;2.22;0.20;;;7.70;99.90;;;;;;10426919;28;20040;-54
2021/03/16 14:59:02;;;;;;;5.78;1.00;;;7.60;99.90;;;;;;10444907;28;20049;-54
2021/03/16 15:04:23;;;;;;;0.20;0.10;;;7.60;99.90;;;;;;10443786;28;20041;-54
2021/03/16 15:09:44;;;;;;;0.50;0.10;;;7.50;99.90;;;;;;10443527;28;20550;-54
2021/03/16 15:15:06;;;;;;;0.82;0.17;;;7.40;99.90;;;;;;10404731;28;20045;-54
2021/03/16 15:20:27;;;;;;;1.38;0.20;;;7.40;99.90;;;;;;10423928;28;20404;-54
2021/03/16 15:25:50;;;;;;;2.65;0.30;;;7.30;99.90;;;;;;10442707;28;20128;-54
2021/03/16 15:31:11;;;;;;;2.10;0.20;;;7.20;99.90;;;;;;10443975;28;20040;-54
2021/03/16 15:36:32;;;;;;;0.52;0.10;;;7.10;99.90;;;;;;10441659;28;20047;-54
2021/03/16 15:41:53;;;;;;;1.35;0.20;;;6.90;99.90;;;;;;10441822;28;20083;-54
2021/03/16 15:47:14;;;;;;;0.47;0.13;;;6.90;99.90;;;;;;10442353;28;20036;-54
2021/03/16 15:52:35;;;;;;;0.47;0.28;;;6.80;99.90;;;;;;10416966;28;20041;-54
2021/03/16 15:57:56;;;;;;;0.20;0.10;;;6.70;99.90;;;;;;10424733;28;20056;-54
2021/03/16 16:03:17;;;;;;;0.17;0.10;;;6.70;99.90;;;;;;10442856;28;20349;-54
2021/03/16 16:08:39;;;;;;;0.32;0.20;;;6.80;99.90;;;;;;10443930;28;20033;-54
2021/03/16 16:14:00;;;;;;;0.35;0.15;;;6.70;99.90;;;;;;10440089;28;20033;-54
2021/03/16 16:19:21;;;;;;;1.13;0.20;;;6.70;99.90;;;;;;10439268;28;20477;-54
2021/03/16 16:24:42;;;;;;;0.10;0.03;;;6.60;99.90;;;;;;10442534;28;20025;-54
2021/03/16 16:30:05;;;;;;;0.40;0.10;;;6.50;99.90;;;;;;10443241;28;20380;-54
2021/03/16 16:35:26;;;;;;;0.52;0.20;;;6.50;99.90;;;;;;10438054;28;20048;-54
2021/03/16 16:40:52;;;;;;;0.38;0.00;;;6.50;99.90;;;;;;10442029;28;20151;-54
2021/03/16 16:46:13;;;;;;;0.30;0.17;;;6.40;99.90;;;;;;10443101;28;20036;-54
2021/03/16 16:51:34;;;;;;;0.82;0.28;;;6.40;99.90;;;;;;10404869;28;20073;-54
2021/03/16 16:56:55;;;;;;;1.00;0.20;;;6.30;99.90;;;;;;10440605;28;20044;-54
2021/03/16 17:02:16;;;;;;;0.28;0.03;;;6.30;99.90;;;;;;10436509;28;20041;-54
2021/03/16 17:07:37;;;;;;;0.40;0.10;;;6.20;99.90;;;;;;10446198;28;20094;-53
2021/03/16 17:12:58;;;;;;;0.73;0.20;;;6.10;99.90;;;;;;10435000;28;20455;-54
2021/03/16 17:18:20;;;;;;;0.40;0.20;;;6.10;99.90;;;;;;10447858;28;20562;-54
2021/03/16 17:23:41;;;;;;;0.28;0.10;;;6.10;99.90;;;;;;10450322;28;20033;-54
2021/03/16 17:29:02;;;;;;;1.27;0.30;;;6.10;99.90;;;;;;10447973;28;20041;-54
2021/03/16 17:34:22;;;;;;;0.57;0.10;;;6.10;99.90;;;;;;10447148;28;20155;-53
2021/03/16 17:39:43;;;;;;;1.02;0.32;;;6.10;99.90;;;;;;10447047;28;20568;-54
2021/03/16 17:45:07;;;;;;;1.17;0.68;;;6.10;99.90;;;;;;10445821;28;20207;-54
2021/03/16 17:50:28;;;;;;;0.65;0.30;;;6.10;99.90;;;;;;10444390;28;20116;-53
2021/03/16 17:55:49;;;;;;;1.70;0.85;;;6.10;99.90;;;;;;10428019;28;20021;-53
2021/03/16 18:01:10;;;;;;;1.40;0.60;;;6.10;99.90;;;;;;10409807;28;20061;-53
2021/03/16 18:06:31;;;;;;;2.35;1.00;;;6.10;99.90;;;;;;10442467;28;20508;-53
2021/03/16 18:11:52;;;;;;;2.33;0.85;;;6.10;99.90;;;;;;10434829;28;20447;-54
2021/03/16 18:17:13;;;;;;;1.83;0.80;;;6.00;99.90;;;;;;10446863;28;20116;-54
2021/03/16 18:22:34;;;;;;;1.73;0.40;;;6.00;99.90;;;;;;10445552;28;20044;-54
2021/03/16 18:27:55;;;;;;;0.38;0.20;;;6.00;99.90;;;;;;10445359;28;20535;-54
2021/03/16 18:33:16;;;;;;;1.17;0.68;;;6.00;99.90;;;;;;10445077;28;20504;-54
2021/03/16 18:38:37;;;;;;;1.90;0.77;;;5.90;99.90;;;;;;10440887;28;20037;-54
2021/03/16 18:43:58;;;;;;;1.83;0.50;;;5.80;99.90;;;;;;10444772;28;20068;-54
2021/03/16 18:49:19;;;;;;;2.63;1.17;;;5.80;99.90;;;;;;10443715;28;20412;-54
2021/03/16 18:54:40;;;;;;;5.97;1.45;;;5.80;99.90;;;;;;10445736;28;20045;-54
2021/03/16 19:00:02;;;;;;;1.60;0.90;;;5.70;99.90;;;;;;10443796;28;20088;-54
2021/03/16 19:05:23;;;;;;;21.20;6.45;;;5.70;99.90;;;;;;10441416;28;20044;-54
2021/03/16 19:10:44;;;;;;;4.72;1.67;;;5.70;99.90;;;;;;10443990;28;20036;-53
2021/03/16 19:16:05;;;;;;;2.22;1.10;;;5.70;99.90;;;;;;10443256;28;20099;-54
2021/03/16 19:21:26;;;;;;;4.03;0.70;;;5.80;99.90;;;;;;10428785;28;20025;-53
2021/03/16 19:26:47;;;;;;;1.83;0.82;;;5.70;99.90;;;;;;10443269;28;20047;-54
2021/03/16 19:32:08;;;;;;;1.70;0.90;;;5.70;99.90;;;;;;10442865;28;20178;-54
2021/03/16 19:37:29;;;;;;;1.17;0.50;;;5.70;99.90;;;;;;10442854;28;20059;-53
2021/03/16 19:42:50;;;;;;;2.00;0.93;;;5.70;99.90;;;;;;10443426;28;20128;-53
2021/03/16 19:48:11;;;;;;;21.20;8.27;;;5.70;99.90;;;;;;10418187;28;20045;-54
2021/03/16 19:53:32;;;;;;;10.85;4.38;;;5.70;99.90;;;;;;10421123;28;20037;-53
2021/03/16 19:58:53;;;;;;;7.38;3.25;;;5.60;99.90;;;;;;10443704;28;20049;-54
2021/03/16 20:04:14;;;;;;;2.65;1.15;;;5.60;99.90;;;;;;10442587;28;20381;-54
2021/03/16 20:09:35;;;;;;;0.95;0.55;;;5.50;99.90;;;;;;10441878;28;20382;-54
2021/03/16 20:14:56;;;;;;;3.45;1.50;;;5.50;99.90;;;;;;10441366;28;20033;-54
2021/03/16 20:20:17;;;;;;;2.30;0.77;;;5.50;99.90;;;;;;10441489;28;20123;-54
2021/03/16 20:25:38;;;;;;;0.90;0.40;;;5.30;99.90;;;;;;10442117;28;20045;-53
2021/03/16 20:30:59;;;;;;;0.55;0.32;;;5.30;99.90;;;;;;10428045;28;20048;-53
2021/03/16 20:36:21;;;;;;;0.95;0.30;;;5.20;99.90;;;;;;10449167;28;20037;-54
2021/03/16 20:41:44;;;;;;;0.93;0.52;;;5.20;99.90;;;;;;10449048;28;20040;-53
2021/03/16 20:47:05;;;;;;;0.88;0.52;;;5.20;99.90;;;;;;10447775;28;20659;-53
2021/03/16 20:52:27;;;;;;;0.95;0.40;;;5.20;99.90;;;;;;10450311;28;20033;-54
2021/03/16 20:57:48;;;;;;;2.05;0.32;;;5.20;99.90;;;;;;10435450;28;20053;-53
2021/03/16 21:03:09;;;;;;;1.83;0.43;;;5.20;99.90;;;;;;10412824;28;20073;-54
2021/03/16 21:08:30;;;;;;;2.38;0.50;;;5.20;99.90;;;;;;10450508;28;20044;-53
2021/03/16 21:13:51;;;;;;;0.73;0.30;;;5.10;99.90;;;;;;10447047;28;20492;-53
2021/03/16 21:19:13;;;;;;;3.30;0.98;;;5.20;99.90;;;;;;10447358;28;20043;-54
2021/03/16 21:24:34;;;;;;;1.38;0.50;;;5.20;99.90;;;;;;10449031;28;20447;-54
2021/03/16 21:29:55;;;;;;;1.48;0.82;;;5.20;99.90;;;;;;10447440;28;20260;-54
2021/03/16 21:35:16;;;;;;;4.20;0.70;;;5.20;99.90;;;;;;10447891;28;20045;-53
2021/03/16 21:40:38;;;;;;;1.45;0.65;;;5.20;99.90;;;;;;10447983;28;20029;-53
2021/03/16 21:45:59;;;;;;;3.03;1.17;;;5.20;99.90;;;;;;10447706;28;20047;-54
2021/03/16 21:51:20;;;;;;;1.02;0.40;;;5.20;99.90;;;;;;10446623;28;20117;-53
2021/03/16 21:56:41;;;;;;;2.38;1.13;;;5.30;99.90;;;;;;10439128;28;20095;-54
2021/03/16 22:02:02;;;;;;;6.90;1.23;;;5.20;99.90;;;;;;10439973;28;20098;-54
2021/03/16 22:07:23;;;;;;;12.75;5.95;;;5.20;99.90;;;;;;10446030;28;20044;-54
2021/03/16 22:12:46;;;;;;;7.32;2.25;;;5.10;99.90;;;;;;10417202;28;20041;-53
2021/03/16 22:18:07;;;;;;;5.20;1.83;;;5.00;99.90;;;;;;10438476;28;20417;-53
2021/03/16 22:23:28;;;;;;;3.17;1.40;;;5.00;99.90;;;;;;10419782;28;20029;-54
2021/03/16 22:28:49;;;;;;;2.88;1.33;;;5.00;99.90;;;;;;10446685;28;20094;-53
2021/03/16 22:34:10;;;;;;;4.00;2.05;;;4.90;99.90;;;;;;10444800;28;20102;-54
2021/03/16 22:39:31;;;;;;;3.88;1.38;;;4.90;99.90;;;;;;10420519;28;20033;-54
2021/03/16 22:44:52;;;;;;;4.50;1.95;;;5.00;99.90;;;;;;10445591;28;20037;-53
2021/03/16 22:50:14;;;;;;;4.35;1.98;;;4.90;99.90;;;;;;10444386;28;20033;-53
2021/03/16 22:55:35;;;;;;;4.70;2.10;;;5.00;99.90;;;;;;10444919;28;20408;-54
2021/03/16 23:00:56;;;;;;;2.53;1.35;;;4.90;99.90;;;;;;10443864;28;20329;-54
2021/03/16 23:06:17;;;;;;;3.53;1.95;;;5.00;99.90;;;;;;10441038;28;20068;-54
2021/03/16 23:11:38;;;;;;;2.35;0.82;;;5.00;99.90;;;;;;10443104;28;20037;-54
2021/03/16 23:16:59;;;;;;;2.28;0.68;;;5.00;99.90;;;;;;10443461;28;20040;-53
2021/03/16 23:22:20;;;;;;;2.83;0.68;;;5.10;99.90;;;;;;10442105;28;20033;-54
2021/03/16 23:27:41;;;;;;;2.63;0.90;;;5.00;99.90;;;;;;10442714;28;20072;-53
2021/03/16 23:33:05;;;;;;;1.05;0.40;;;5.00;99.90;;;;;;10432444;28;20048;-54
2021/03/16 23:38:26;;;;;;;1.02;0.38;;;5.00;99.90;;;;;;10402317;28;20405;-54
2021/03/16 23:43:47;;;;;;;1.08;0.40;;;5.00;99.90;;;;;;10427949;28;20094;-54
2021/03/16 23:49:08;;;;;;;0.95;0.40;;;4.90;99.90;;;;;;10442291;28;20037;-53
2021/03/16 23:54:29;;;;;;;0.98;0.40;;;4.90;99.90;;;;;;10443173;28;20029;-53
2021/03/16 23:59:50;;;;;;;0.68;0.20;;;4.90;99.90;;;;;;10442011;28;20120;-53
